createdAt,value
2023-03-05T00:00:31.965Z,57.00
2023-03-05T00:03:07.755Z,57.00
2023-03-05T00:05:41.912Z,57.10
2023-03-05T00:08:15.984Z,57.30
2023-03-05T00:10:58.752Z,57.30
2023-03-05T00:13:33.832Z,57.60
2023-03-05T00:16:11.891Z,57.60
2023-03-05T00:18:47.590Z,57.70
2023-03-05T00:21:25.698Z,57.70
2023-03-05T00:24:02.556Z,57.80
2023-03-05T00:26:39.809Z,57.90
2023-03-05T00:29:18.805Z,58.00
2023-03-05T00:31:53.064Z,58.10
2023-03-05T00:34:28.727Z,58.10
2023-03-05T00:37:02.595Z,58.20
2023-03-05T00:39:36.503Z,58.20
2023-03-05T00:42:10.312Z,58.80
2023-03-05T00:44:44.113Z,58.60
2023-03-05T00:47:18.488Z,58.60
2023-03-05T00:49:53.669Z,58.70
2023-03-05T00:52:28.089Z,58.70
2023-03-05T00:55:02.412Z,58.70
2023-03-05T00:57:38.305Z,58.80
2023-03-05T01:00:16.177Z,58.70
2023-03-05T01:02:50.596Z,58.80
2023-03-05T01:05:25.891Z,58.80
2023-03-05T01:08:00.082Z,58.80
2023-03-05T01:10:35.498Z,58.80
2023-03-05T01:13:09.509Z,58.90
2023-03-05T01:15:44.691Z,58.90
2023-03-05T01:18:20.192Z,58.90
2023-03-05T01:20:55.647Z,59.00
2023-03-05T01:23:29.732Z,59.00
2023-03-05T01:26:03.525Z,59.00
2023-03-05T01:28:38.628Z,59.00
2023-03-05T01:31:13.278Z,59.00
2023-03-05T01:33:47.194Z,59.00
2023-03-05T01:36:25.384Z,59.00
2023-03-05T01:38:59.325Z,59.20
2023-03-05T01:41:34.202Z,59.00
2023-03-05T01:44:08.204Z,59.00
2023-03-05T01:46:42.054Z,59.10
2023-03-05T01:49:24.050Z,59.10
2023-03-05T01:52:09.169Z,59.20
2023-03-05T01:54:48.243Z,59.30
2023-03-05T01:57:28.852Z,59.40
2023-03-05T02:00:09.055Z,59.30
2023-03-05T02:02:44.048Z,59.30
2023-03-05T02:05:27.538Z,59.30
2023-03-05T02:08:06.224Z,59.40
2023-03-05T02:10:43.533Z,59.40
2023-03-05T02:13:22.932Z,59.40
2023-03-05T02:16:00.456Z,59.50
2023-03-05T02:18:34.544Z,59.50
2023-03-05T02:21:10.732Z,59.50
2023-03-05T02:23:47.440Z,59.50
2023-03-05T02:26:21.008Z,59.50
2023-03-05T02:29:00.154Z,59.50
2023-03-05T02:31:33.768Z,59.60
2023-03-05T02:34:08.126Z,59.60
2023-03-05T02:36:43.432Z,59.70
2023-03-05T02:39:17.361Z,59.60
2023-03-05T02:41:51.116Z,59.70
2023-03-05T02:44:25.219Z,59.60
2023-03-05T02:46:59.017Z,59.60
2023-03-05T02:49:33.342Z,59.60
2023-03-05T02:52:09.607Z,59.70
2023-03-05T02:54:43.270Z,59.70
2023-03-05T02:57:17.628Z,59.60
2023-03-05T02:59:51.563Z,59.70
2023-03-05T03:02:25.362Z,59.70
2023-03-05T03:04:59.416Z,59.70
2023-03-05T03:07:36.031Z,59.70
2023-03-05T03:10:12.021Z,59.80
2023-03-05T03:12:47.420Z,59.80
2023-03-05T03:15:21.304Z,59.80
2023-03-05T03:17:56.103Z,59.80
2023-03-05T03:20:30.200Z,60.00
2023-03-05T03:23:05.353Z,60.00
2023-03-05T03:25:39.404Z,59.90
2023-03-05T03:28:12.911Z,60.00
2023-03-05T03:30:46.789Z,60.10
2023-03-05T03:33:20.656Z,60.20
2023-03-05T03:35:54.589Z,60.20
2023-03-05T03:38:30.043Z,60.30
2023-03-05T03:41:03.980Z,60.40
2023-03-05T03:43:38.546Z,60.40
2023-03-05T03:46:12.206Z,60.50
2023-03-05T03:48:46.685Z,60.40
2023-03-05T03:51:21.888Z,60.40
2023-03-05T03:53:57.240Z,60.50
2023-03-05T03:56:30.910Z,60.60
2023-03-05T03:59:04.731Z,60.50
2023-03-05T04:01:39.132Z,60.60
2023-03-05T04:04:14.577Z,60.70
2023-03-05T04:06:48.715Z,60.80
2023-03-05T04:09:23.569Z,60.80
2023-03-05T04:11:57.271Z,60.90
2023-03-05T04:14:30.747Z,60.90
2023-03-05T04:17:05.185Z,60.90
2023-03-05T04:19:39.298Z,61.00
2023-03-05T04:22:14.263Z,61.00
2023-03-05T04:24:49.746Z,61.20
2023-03-05T04:27:23.641Z,61.20
2023-03-05T04:29:57.671Z,61.30
2023-03-05T04:32:31.821Z,61.50
2023-03-05T04:35:06.443Z,61.50
2023-03-05T04:37:40.255Z,61.60
2023-03-05T04:40:16.678Z,61.60
2023-03-05T04:42:50.361Z,61.70
2023-03-05T04:45:24.123Z,61.70
2023-03-05T04:47:58.175Z,61.60
2023-03-05T04:50:32.661Z,61.70
2023-03-05T04:53:07.520Z,61.70
2023-03-05T04:55:42.297Z,61.80
2023-03-05T04:58:16.054Z,61.80
2023-03-05T05:00:50.234Z,61.70
2023-03-05T05:03:24.040Z,61.70
2023-03-05T05:05:59.141Z,61.70
2023-03-05T05:08:32.848Z,61.70
2023-03-05T05:11:09.814Z,61.70
2023-03-05T05:13:43.709Z,61.70
2023-03-05T05:16:17.698Z,61.60
2023-03-05T05:18:51.209Z,61.60
2023-03-05T05:21:25.009Z,61.60
2023-03-05T05:23:58.738Z,61.60
2023-03-05T05:26:37.180Z,61.60
2023-03-05T05:29:11.214Z,61.60
2023-03-05T05:31:45.353Z,61.70
2023-03-05T05:34:19.188Z,62.30
2023-03-05T05:36:53.424Z,61.60
2023-03-05T05:39:27.411Z,61.70
2023-03-05T05:42:02.458Z,61.70
2023-03-05T05:44:36.565Z,61.80
2023-03-05T05:47:11.790Z,61.80
2023-03-05T05:49:45.905Z,61.90
2023-03-05T05:52:19.498Z,61.90
2023-03-05T05:54:53.132Z,61.90
2023-03-05T05:57:29.126Z,61.90
2023-03-05T06:00:02.963Z,62.00
2023-03-05T06:02:39.830Z,62.00
2023-03-05T06:05:16.060Z,62.10
2023-03-05T06:07:49.751Z,62.10
2023-03-05T06:10:23.208Z,62.00
2023-03-05T06:12:58.310Z,62.00
2023-03-05T06:15:32.090Z,62.20
2023-03-05T06:18:06.169Z,62.20
2023-03-05T06:20:40.084Z,62.30
2023-03-05T06:23:14.035Z,62.30
2023-03-05T06:25:47.690Z,62.20
2023-03-05T06:28:23.016Z,62.40
2023-03-05T06:31:03.628Z,62.50
2023-03-05T06:33:37.966Z,62.70
2023-03-05T06:36:15.008Z,62.70
2023-03-05T06:38:49.158Z,62.80
2023-03-05T06:41:27.100Z,62.70
2023-03-05T06:44:04.136Z,62.80
2023-03-05T06:46:40.286Z,62.90
2023-03-05T06:49:14.361Z,62.80
2023-03-05T06:51:48.035Z,63.10
2023-03-05T06:54:21.922Z,63.00
2023-03-05T06:56:55.788Z,63.10
2023-03-05T06:59:31.059Z,63.10
2023-03-05T07:02:04.910Z,63.20
2023-03-05T07:04:38.801Z,63.30
2023-03-05T07:07:12.315Z,63.30
2023-03-05T07:09:48.192Z,63.30
2023-03-05T07:12:22.217Z,63.50
2023-03-05T07:14:58.048Z,63.50
2023-03-05T07:17:31.916Z,63.50
2023-03-05T07:20:09.005Z,63.50
2023-03-05T07:22:42.978Z,63.70
2023-03-05T07:25:21.985Z,63.40
2023-03-05T07:27:55.809Z,63.40
2023-03-05T07:30:31.509Z,63.50
2023-03-05T07:33:05.633Z,64.20
2023-03-05T07:35:42.560Z,63.50
2023-03-05T07:38:16.374Z,63.40
2023-03-05T07:40:50.269Z,63.50
2023-03-05T07:43:25.086Z,63.50
2023-03-05T07:46:00.866Z,63.50
2023-03-05T07:48:35.656Z,63.60
2023-03-05T07:51:15.220Z,63.40
2023-03-05T07:53:51.247Z,64.10
2023-03-05T07:56:26.515Z,63.40
2023-03-05T07:59:01.161Z,63.50
2023-03-05T08:01:37.511Z,63.40
2023-03-05T08:04:12.130Z,63.50
2023-03-05T08:06:47.549Z,63.40
2023-03-05T08:09:21.703Z,63.30
2023-03-05T08:11:55.408Z,63.50
2023-03-05T08:14:29.558Z,63.70
2023-03-05T08:17:05.714Z,63.80
2023-03-05T08:19:39.444Z,63.70
2023-03-05T08:22:16.508Z,63.70
2023-03-05T08:24:50.707Z,63.70
2023-03-05T08:27:24.650Z,63.60
2023-03-05T08:29:58.591Z,63.60
2023-03-05T08:32:33.673Z,63.50
2023-03-05T08:35:09.645Z,63.30
2023-03-05T08:37:43.382Z,63.30
2023-03-05T08:40:19.394Z,63.20
2023-03-05T08:42:53.147Z,63.50
2023-03-05T08:45:27.992Z,63.50
2023-03-05T08:48:03.169Z,63.60
2023-03-05T08:50:39.056Z,63.80
2023-03-05T08:53:13.166Z,64.00
2023-03-05T08:55:57.011Z,64.00
2023-03-05T08:58:31.599Z,64.10
2023-03-05T09:01:06.095Z,63.90
2023-03-05T09:03:41.891Z,63.70
2023-03-05T09:06:15.491Z,63.60
2023-03-05T09:08:49.617Z,63.30
2023-03-05T09:11:23.493Z,63.30
2023-03-05T09:13:59.540Z,63.40
2023-03-05T09:16:33.612Z,63.50
2023-03-05T09:19:10.909Z,63.80
2023-03-05T09:21:44.583Z,64.00
2023-03-05T09:24:18.879Z,64.20
2023-03-05T09:26:52.443Z,64.30
2023-03-05T09:29:27.133Z,64.50
2023-03-05T09:32:01.121Z,64.60
2023-03-05T09:34:36.327Z,64.70
2023-03-05T09:37:10.652Z,64.70
2023-03-05T09:39:44.379Z,65.00
2023-03-05T09:42:59.390Z,64.90
2023-03-05T09:45:41.426Z,65.30
2023-03-05T09:48:23.241Z,65.20
2023-03-05T09:51:04.706Z,65.30
2023-03-05T09:53:46.561Z,65.40
2023-03-05T09:56:27.367Z,65.40
2023-03-05T09:59:15.693Z,65.60
2023-03-05T10:01:53.768Z,65.70
2023-03-05T10:04:44.649Z,65.80
2023-03-05T10:07:27.761Z,65.90
2023-03-05T10:10:05.621Z,66.30
2023-03-05T10:12:44.227Z,66.50
2023-03-05T10:15:28.746Z,66.50
2023-03-05T10:18:28.987Z,66.50
2023-03-05T10:21:08.006Z,66.80
2023-03-05T10:24:04.556Z,66.50
2023-03-05T10:26:59.252Z,66.50
2023-03-05T10:30:00.313Z,66.10
2023-03-05T10:32:46.839Z,65.90
2023-03-05T10:35:41.940Z,65.50
2023-03-05T10:38:55.184Z,65.20
2023-03-05T10:41:39.912Z,65.30
2023-03-05T10:44:19.974Z,65.30
2023-03-05T10:46:56.723Z,65.30
2023-03-05T10:49:36.707Z,65.10
2023-03-05T10:52:18.856Z,65.00
2023-03-05T10:54:54.250Z,64.80
2023-03-05T10:57:32.436Z,64.30
2023-03-05T11:00:20.110Z,64.10
2023-03-05T11:03:02.047Z,63.90
2023-03-05T11:05:46.868Z,63.90
2023-03-05T11:08:35.452Z,63.80
2023-03-05T11:11:20.482Z,63.80
2023-03-05T11:13:58.538Z,63.70
2023-03-05T11:16:35.313Z,63.50
2023-03-05T11:19:22.588Z,63.40
2023-03-05T11:22:14.464Z,63.60
2023-03-05T11:25:16.492Z,63.70
2023-03-05T11:27:57.638Z,63.80
2023-03-05T11:30:34.122Z,63.70
2023-03-05T11:33:18.243Z,63.70
2023-03-05T11:36:13.312Z,63.90
2023-03-05T11:38:53.708Z,64.10
2023-03-05T11:41:40.940Z,64.00
2023-03-05T11:44:23.112Z,64.00
2023-03-05T11:47:03.292Z,63.70
2023-03-05T11:49:47.274Z,63.70
2023-03-05T11:52:28.094Z,63.70
2023-03-05T11:55:12.657Z,63.70
2023-03-05T11:57:54.134Z,63.80
2023-03-05T12:00:39.260Z,63.90
2023-03-05T12:03:18.115Z,64.00
2023-03-05T12:05:58.270Z,64.00
2023-03-05T12:08:36.502Z,63.90
2023-03-05T12:11:20.527Z,63.80
2023-03-05T12:14:00.827Z,63.90
2023-03-05T12:16:43.883Z,64.00
2023-03-05T12:19:42.750Z,63.80
2023-03-05T12:22:25.000Z,63.60
2023-03-05T12:25:29.524Z,63.50
2023-03-05T12:28:04.617Z,63.30
2023-03-05T12:31:00.749Z,63.20
2023-03-05T12:33:39.315Z,63.00
2023-03-05T12:36:39.835Z,63.20
2023-03-05T12:39:52.815Z,62.70
2023-03-05T12:42:53.660Z,62.20
2023-03-05T12:45:40.406Z,61.80
2023-03-05T12:48:46.563Z,61.70
2023-03-05T12:51:37.240Z,61.50
2023-03-05T12:54:34.982Z,61.20
2023-03-05T12:57:20.309Z,61.00
2023-03-05T13:00:02.544Z,60.90
2023-03-05T13:02:40.809Z,60.80
2023-03-05T13:05:24.060Z,60.80
2023-03-05T13:08:16.212Z,60.90
2023-03-05T13:10:56.511Z,60.90
2023-03-05T13:13:35.064Z,60.80
2023-03-05T13:16:20.136Z,60.90
2023-03-05T13:18:56.012Z,61.90
2023-03-05T13:21:35.398Z,61.10
2023-03-05T13:24:19.175Z,61.00
2023-03-05T13:26:53.945Z,61.00
2023-03-05T13:29:31.063Z,61.00
2023-03-05T13:32:25.870Z,60.50
2023-03-05T13:35:02.397Z,59.90
2023-03-05T13:37:40.131Z,59.50
2023-03-05T13:40:24.325Z,59.10
2023-03-05T13:43:12.108Z,58.90
2023-03-05T13:45:55.382Z,59.00
2023-03-05T13:48:29.487Z,58.90
2023-03-05T13:51:06.838Z,58.90
2023-03-05T13:53:41.916Z,58.90
2023-03-05T13:56:18.961Z,58.80
2023-03-05T13:58:55.271Z,58.60
2023-03-05T14:01:33.247Z,58.20
2023-03-05T14:04:18.143Z,57.90
2023-03-05T14:06:58.925Z,57.80
2023-03-05T14:09:48.870Z,57.90
2023-03-05T14:12:30.383Z,57.70
2023-03-05T14:15:07.667Z,57.80
2023-03-05T14:17:43.417Z,57.70
2023-03-05T14:20:27.594Z,57.70
2023-03-05T14:23:03.872Z,57.50
2023-03-05T14:25:40.815Z,57.60
2023-03-05T14:28:30.131Z,57.50
2023-03-05T14:31:03.679Z,57.50
2023-03-05T14:33:37.426Z,57.50
2023-03-05T14:36:12.885Z,57.50
2023-03-05T14:38:46.401Z,57.50
2023-03-05T14:41:40.338Z,57.30
2023-03-05T14:44:19.096Z,57.10
2023-03-05T14:46:52.878Z,57.30
2023-03-05T14:49:26.817Z,57.30
2023-03-05T14:52:01.212Z,57.30
2023-03-05T14:54:38.863Z,57.30
2023-03-05T14:57:19.854Z,57.30
2023-03-05T14:59:54.306Z,57.30
2023-03-05T15:02:29.359Z,57.10
2023-03-05T15:05:03.531Z,56.80
2023-03-05T15:07:38.288Z,56.60
2023-03-05T15:10:17.274Z,56.70
2023-03-05T15:12:53.647Z,56.50
2023-03-05T15:15:28.431Z,56.50
2023-03-05T15:18:02.376Z,56.60
2023-03-05T15:20:37.374Z,56.50
2023-03-05T15:23:12.498Z,56.60
2023-03-05T15:25:46.878Z,56.50
2023-03-05T15:28:23.017Z,56.60
2023-03-05T15:30:59.677Z,56.60
2023-03-05T15:33:35.375Z,56.70
2023-03-05T15:36:10.130Z,56.70
2023-03-05T15:38:44.970Z,56.60
2023-03-05T15:41:18.628Z,56.40
2023-03-05T15:43:53.724Z,56.50
2023-03-05T15:46:27.702Z,56.50
2023-03-05T15:49:02.727Z,56.50
2023-03-05T15:51:36.513Z,56.70
2023-03-05T15:54:11.172Z,56.70
2023-03-05T15:56:44.952Z,56.60
2023-03-05T15:59:21.823Z,56.70
2023-03-05T16:01:55.806Z,56.70
2023-03-05T16:04:30.426Z,56.70
2023-03-05T16:07:06.435Z,56.70
2023-03-05T16:09:45.858Z,56.90
2023-03-05T16:12:25.124Z,56.80
2023-03-05T16:15:00.652Z,56.80
2023-03-05T16:17:35.216Z,56.80
2023-03-05T16:20:12.039Z,56.80
2023-03-05T16:22:46.412Z,56.80
2023-03-05T16:25:21.900Z,57.30
2023-03-05T16:27:55.855Z,56.80
2023-03-05T16:30:33.207Z,56.90
2023-03-05T16:33:08.085Z,56.90
2023-03-05T16:35:41.819Z,56.90
2023-03-05T16:38:15.858Z,56.80
2023-03-05T16:41:07.223Z,56.90
2023-03-05T16:43:41.610Z,56.80
2023-03-05T16:46:18.116Z,56.90
2023-03-05T16:48:52.501Z,57.00
2023-03-05T16:51:27.358Z,57.00
2023-03-05T16:54:01.896Z,57.00
2023-03-05T16:56:36.552Z,57.00
2023-03-05T16:59:10.105Z,57.20
2023-03-05T17:01:46.121Z,57.10
2023-03-05T17:04:19.758Z,57.20
2023-03-05T17:06:55.574Z,57.20
2023-03-05T17:09:29.167Z,57.10
2023-03-05T17:12:03.947Z,57.20
2023-03-05T17:14:38.050Z,57.20
2023-03-05T17:17:13.524Z,57.30
2023-03-05T17:19:47.010Z,57.30
2023-03-05T17:22:21.249Z,57.30
2023-03-05T17:24:54.803Z,57.40
2023-03-05T17:27:29.615Z,57.40
2023-03-05T17:30:03.717Z,57.50
2023-03-05T17:32:39.067Z,57.50
2023-03-05T17:35:19.932Z,57.60
2023-03-05T17:37:55.858Z,57.60
2023-03-05T17:40:29.999Z,57.60
2023-03-05T17:43:04.597Z,57.50
2023-03-05T17:45:38.890Z,57.60
2023-03-05T17:48:15.064Z,57.50
2023-03-05T17:50:48.831Z,57.50
2023-03-05T17:53:23.117Z,57.50
2023-03-05T17:55:56.824Z,57.60
2023-03-05T17:58:30.838Z,57.90
2023-03-05T18:01:06.404Z,57.70
2023-03-05T18:03:42.086Z,57.90
2023-03-05T18:06:15.768Z,58.00
2023-03-05T18:08:50.872Z,57.90
2023-03-05T18:11:24.878Z,57.90
2023-03-05T18:13:58.717Z,58.20
2023-03-05T18:16:32.629Z,58.30
2023-03-05T18:19:09.880Z,58.40
2023-03-05T18:21:44.064Z,58.50
2023-03-05T18:24:18.840Z,58.60
2023-03-05T18:26:53.660Z,58.70
2023-03-05T18:29:28.109Z,58.80
2023-03-05T18:32:02.526Z,59.00
2023-03-05T18:34:38.281Z,59.10
2023-03-05T18:37:11.818Z,59.00
2023-03-05T18:39:45.836Z,58.90
2023-03-05T18:42:19.754Z,59.10
2023-03-05T18:44:53.618Z,59.10
2023-03-05T18:47:28.381Z,59.20
2023-03-05T18:50:03.597Z,59.40
2023-03-05T18:52:38.910Z,59.40
2023-03-05T18:55:17.304Z,59.50
2023-03-05T18:57:52.017Z,59.50
2023-03-05T19:00:29.850Z,59.50
2023-03-05T19:03:05.708Z,59.70
2023-03-05T19:05:42.955Z,59.80
2023-03-05T19:08:16.728Z,59.90
2023-03-05T19:10:51.300Z,60.00
2023-03-05T19:13:35.502Z,60.30
2023-03-05T19:16:12.876Z,60.10
2023-03-05T19:18:57.581Z,60.30
2023-03-05T19:21:32.998Z,60.30
2023-03-05T19:24:07.351Z,60.40
2023-03-05T19:26:42.161Z,60.50
2023-03-05T19:29:16.734Z,60.90
2023-03-05T19:31:53.385Z,60.90
2023-03-05T19:34:26.920Z,61.00
2023-03-05T19:37:02.118Z,60.90
2023-03-05T19:39:37.493Z,61.10
2023-03-05T19:42:11.276Z,61.20
2023-03-05T19:44:45.088Z,61.10
2023-03-05T19:47:18.749Z,61.20
2023-03-05T19:49:53.478Z,61.20
2023-03-05T19:52:28.821Z,61.30
2023-03-05T19:55:02.489Z,61.30
2023-03-05T19:57:36.253Z,61.30
2023-03-05T20:00:11.902Z,61.90
2023-03-05T20:02:46.059Z,61.60
2023-03-05T20:05:23.294Z,61.60
2023-03-05T20:07:58.827Z,61.50
2023-03-05T20:10:32.467Z,61.50
2023-03-05T20:13:06.054Z,61.50
2023-03-05T20:15:39.671Z,61.50
2023-03-05T20:18:13.555Z,61.60
2023-03-05T20:20:52.605Z,61.70
2023-03-05T20:23:29.014Z,61.70
2023-03-05T20:26:04.985Z,61.70
2023-03-05T20:28:38.580Z,61.80
2023-03-05T20:31:13.266Z,61.80
2023-03-05T20:33:46.726Z,61.80
2023-03-05T20:36:20.583Z,61.70
2023-03-05T20:38:55.873Z,61.70
2023-03-05T20:41:31.605Z,61.80
2023-03-05T20:44:06.561Z,61.70
2023-03-05T20:46:53.890Z,61.70
2023-03-05T20:49:27.875Z,61.70
2023-03-05T20:52:01.509Z,61.70
2023-03-05T20:54:36.856Z,61.60
2023-03-05T20:57:11.851Z,61.60
2023-03-05T20:59:45.566Z,61.70
2023-03-05T21:02:19.836Z,61.50
2023-03-05T21:04:53.653Z,61.50
2023-03-05T21:07:29.771Z,61.50
2023-03-05T21:10:06.591Z,61.50
2023-03-05T21:12:40.523Z,61.60
2023-03-05T21:15:17.129Z,61.50
2023-03-05T21:17:52.343Z,61.60
2023-03-05T21:20:30.512Z,61.60
2023-03-05T21:23:04.872Z,61.70
2023-03-05T21:25:40.223Z,61.40
2023-03-05T21:28:17.749Z,61.70
2023-03-05T21:30:54.504Z,61.80
2023-03-05T21:33:31.346Z,62.00
2023-03-05T21:36:05.306Z,61.90
2023-03-05T21:38:39.579Z,61.90
2023-03-05T21:41:15.671Z,62.00
2023-03-05T21:43:49.152Z,62.00
2023-03-05T21:46:23.080Z,62.00
2023-03-05T21:48:56.888Z,61.90
2023-03-05T21:51:39.098Z,62.10
2023-03-05T21:54:12.818Z,62.00
2023-03-05T21:56:48.017Z,61.80
2023-03-05T21:59:21.505Z,62.10
2023-03-05T22:01:55.450Z,62.10
2023-03-05T22:04:29.817Z,62.10
2023-03-05T22:07:06.152Z,62.10
2023-03-05T22:09:40.037Z,62.20
2023-03-05T22:12:23.213Z,62.20
2023-03-05T22:14:57.392Z,62.40
2023-03-05T22:17:31.468Z,62.30
2023-03-05T22:20:06.064Z,62.40
2023-03-05T22:22:40.297Z,62.50
2023-03-05T22:25:15.758Z,62.50
2023-03-05T22:27:51.161Z,62.50
2023-03-05T22:30:25.311Z,62.50
2023-03-05T22:32:59.211Z,62.60
2023-03-05T22:35:33.356Z,62.60
2023-03-05T22:38:07.106Z,62.70
2023-03-05T22:40:44.480Z,62.80
2023-03-05T22:43:21.261Z,63.80
2023-03-05T22:45:54.906Z,63.00
2023-03-05T22:48:28.737Z,62.90
2023-03-05T22:51:02.826Z,63.00
2023-03-05T22:53:37.167Z,63.00
2023-03-05T22:56:14.416Z,63.00
2023-03-05T22:58:50.084Z,63.20
2023-03-05T23:01:26.346Z,63.10
2023-03-05T23:04:08.490Z,63.20
2023-03-05T23:06:42.515Z,63.30
2023-03-05T23:09:17.374Z,63.30
2023-03-05T23:11:51.372Z,63.30
2023-03-05T23:14:26.903Z,63.20
2023-03-05T23:17:00.754Z,63.30
2023-03-05T23:19:39.809Z,63.30
2023-03-05T23:22:16.144Z,63.40
2023-03-05T23:24:50.433Z,63.50
2023-03-05T23:27:25.417Z,63.40
2023-03-05T23:30:12.930Z,63.50
2023-03-05T23:32:50.007Z,63.50
2023-03-05T23:35:27.288Z,63.40
2023-03-05T23:38:04.137Z,63.30
2023-03-05T23:40:43.190Z,63.30
2023-03-05T23:43:19.459Z,63.30
2023-03-05T23:45:56.210Z,63.40
2023-03-05T23:48:31.888Z,63.60
2023-03-05T23:51:10.838Z,63.90
2023-03-05T23:53:44.752Z,63.60
2023-03-05T23:56:18.263Z,64.20
2023-03-05T23:58:51.617Z,63.50
